createdAt,value
2023-01-17T00:01:12.720Z,5.75
2023-01-17T00:03:58.349Z,6.15
2023-01-17T00:06:44.725Z,5.82
2023-01-17T00:09:30.868Z,5.45
2023-01-17T00:11:58.523Z,5.68
2023-01-17T00:14:25.511Z,5.23
2023-01-17T00:16:52.274Z,5.14
2023-01-17T00:19:37.590Z,5.10
2023-01-17T00:22:29.727Z,5.64
2023-01-17T00:25:15.086Z,5.43
2023-01-17T00:27:41.722Z,5.69
2023-01-17T00:30:08.773Z,5.42
2023-01-17T00:32:35.433Z,5.18
2023-01-17T00:35:02.094Z,5.29
2023-01-17T00:37:28.873Z,5.81
2023-01-17T00:39:55.504Z,5.92
2023-01-17T00:42:22.156Z,5.99
2023-01-17T00:45:07.573Z,5.74
2023-01-17T00:47:53.214Z,5.57
2023-01-17T00:50:38.657Z,5.40
2023-01-17T00:53:24.403Z,5.30
2023-01-17T00:56:09.524Z,5.60
2023-01-17T00:58:54.762Z,5.36
2023-01-17T01:01:40.189Z,5.59
2023-01-17T01:04:25.506Z,5.12
2023-01-17T01:07:10.747Z,5.08
2023-01-17T01:09:56.043Z,4.85
2023-01-17T01:12:41.235Z,5.21
2023-01-17T01:15:27.081Z,5.10
2023-01-17T01:18:12.154Z,5.26
2023-01-17T01:20:57.321Z,5.31
2023-01-17T01:23:42.393Z,5.26
2023-01-17T01:26:27.654Z,5.50
2023-01-17T01:29:12.753Z,5.22
2023-01-17T01:31:57.819Z,5.24
2023-01-17T01:34:24.623Z,6.12
2023-01-17T01:36:51.433Z,5.21
2023-01-17T01:39:18.476Z,5.30
2023-01-17T01:41:45.273Z,5.49
2023-01-17T01:44:30.816Z,5.99
2023-01-17T01:46:57.646Z,6.32
2023-01-17T01:49:26.316Z,6.69
2023-01-17T01:51:54.944Z,7.04
2023-01-17T01:54:23.923Z,6.95
2023-01-17T01:56:52.705Z,6.69
2023-01-17T01:59:20.574Z,7.27
2023-01-17T02:01:48.812Z,7.56
2023-01-17T02:04:15.713Z,7.68
2023-01-17T02:06:46.233Z,7.87
2023-01-17T02:09:15.365Z,7.87
2023-01-17T02:11:42.260Z,7.73
2023-01-17T02:14:09.232Z,7.73
2023-01-17T02:17:02.670Z,7.99
2023-01-17T02:19:29.922Z,8.07
2023-01-17T02:22:07.842Z,7.58
2023-01-17T02:24:43.734Z,7.66
2023-01-17T02:27:24.618Z,7.91
2023-01-17T02:29:51.439Z,7.89
2023-01-17T02:32:21.189Z,7.83
2023-01-17T02:34:53.628Z,7.98
2023-01-17T02:37:29.479Z,7.70
2023-01-17T02:39:59.181Z,8.11
2023-01-17T02:42:28.239Z,7.74
2023-01-17T02:47:56.904Z,7.71
2023-01-17T02:50:41.216Z,7.80
2023-01-17T02:53:08.037Z,8.02
2023-01-17T02:55:41.041Z,7.89
2023-01-17T02:58:28.153Z,8.03
2023-01-17T03:00:59.869Z,8.25
2023-01-17T03:03:27.417Z,7.98
2023-01-17T03:06:08.040Z,7.98
2023-01-17T03:08:34.910Z,7.87
2023-01-17T03:11:01.867Z,7.84
2023-01-17T03:13:28.624Z,8.22
2023-01-17T03:15:55.334Z,8.40
2023-01-17T03:18:22.119Z,8.18
2023-01-17T03:20:48.870Z,8.26
2023-01-17T03:23:15.665Z,8.33
2023-01-17T03:25:42.439Z,8.44
2023-01-17T03:28:09.151Z,8.45
2023-01-17T03:30:37.493Z,8.41
2023-01-17T03:33:04.285Z,8.36
2023-01-17T03:35:31.065Z,8.40
2023-01-17T03:37:57.789Z,8.47
2023-01-17T03:40:24.547Z,8.47
2023-01-17T03:42:51.296Z,8.64
2023-01-17T03:45:18.207Z,8.52
2023-01-17T03:47:45.027Z,8.34
2023-01-17T03:50:12.559Z,8.38
2023-01-17T03:52:39.397Z,8.36
2023-01-17T03:55:06.731Z,8.17
2023-01-17T03:57:33.556Z,7.99
2023-01-17T04:00:00.274Z,8.10
2023-01-17T04:02:27.238Z,7.93
2023-01-17T04:04:55.734Z,7.99
2023-01-17T04:07:23.169Z,7.87
2023-01-17T04:09:49.932Z,8.09
2023-01-17T04:12:16.793Z,8.20
2023-01-17T04:14:43.528Z,8.12
2023-01-17T04:17:14.077Z,8.25
2023-01-17T04:19:41.405Z,8.16
2023-01-17T04:22:08.746Z,8.30
2023-01-17T04:24:35.538Z,8.08
2023-01-17T04:27:02.396Z,8.24
2023-01-17T04:29:29.185Z,8.27
2023-01-17T04:31:56.010Z,8.22
2023-01-17T04:34:23.034Z,8.14
2023-01-17T04:36:49.815Z,7.93
2023-01-17T04:39:16.632Z,7.78
2023-01-17T04:41:44.117Z,7.96
2023-01-17T04:44:11.430Z,8.05
2023-01-17T04:46:38.171Z,8.26
2023-01-17T04:49:04.999Z,7.95
2023-01-17T04:51:31.710Z,7.97
2023-01-17T04:53:58.749Z,8.10
2023-01-17T04:56:25.556Z,8.01
2023-01-17T04:58:52.269Z,8.27
2023-01-17T05:01:20.569Z,8.32
2023-01-17T05:03:47.405Z,7.84
2023-01-17T05:06:14.134Z,7.65
2023-01-17T05:08:40.912Z,7.64
2023-01-17T05:11:07.661Z,7.15
2023-01-17T05:13:34.461Z,7.16
2023-01-17T05:16:01.243Z,7.50
2023-01-17T05:18:28.139Z,7.54
2023-01-17T05:20:54.931Z,7.33
2023-01-17T05:23:21.632Z,7.35
2023-01-17T05:25:48.433Z,7.11
2023-01-17T05:28:15.263Z,7.25
2023-01-17T05:30:42.083Z,7.54
2023-01-17T05:33:10.653Z,7.44
2023-01-17T05:35:37.829Z,7.43
2023-01-17T05:38:05.022Z,7.60
2023-01-17T05:40:33.194Z,7.70
2023-01-17T05:43:00.660Z,7.73
2023-01-17T05:45:28.971Z,7.67
2023-01-17T05:47:56.287Z,7.68
2023-01-17T05:50:24.716Z,7.43
2023-01-17T05:52:52.647Z,7.56
2023-01-17T05:55:19.767Z,7.61
2023-01-17T05:57:46.732Z,7.63
2023-01-17T06:00:14.256Z,7.67
2023-01-17T06:02:41.560Z,7.58
2023-01-17T06:05:08.697Z,7.44
2023-01-17T06:07:35.420Z,7.48
2023-01-17T06:10:02.208Z,7.48
2023-01-17T06:12:28.945Z,7.41
2023-01-17T06:14:55.678Z,7.56
2023-01-17T06:17:22.449Z,7.56
2023-01-17T06:19:49.168Z,7.58
2023-01-17T06:22:15.916Z,7.56
2023-01-17T06:24:42.660Z,7.59
2023-01-17T06:27:10.371Z,7.59
2023-01-17T06:29:37.720Z,7.59
2023-01-17T06:32:05.025Z,7.58
2023-01-17T06:34:31.984Z,7.66
2023-01-17T06:36:59.206Z,7.46
2023-01-17T06:39:25.995Z,7.75
2023-01-17T06:41:52.778Z,7.58
2023-01-17T06:44:19.534Z,7.56
2023-01-17T06:46:47.872Z,7.58
2023-01-17T06:49:14.937Z,7.41
2023-01-17T06:51:43.566Z,7.29
2023-01-17T06:54:11.008Z,7.40
2023-01-17T06:56:37.825Z,7.47
2023-01-17T06:59:04.849Z,7.45
2023-01-17T07:01:31.806Z,7.58
2023-01-17T07:03:58.715Z,7.57
2023-01-17T07:06:28.986Z,7.57
2023-01-17T07:08:56.767Z,7.56
2023-01-17T07:11:23.697Z,7.56
2023-01-17T07:13:50.462Z,7.80
2023-01-17T07:16:17.550Z,7.84
2023-01-17T07:18:44.277Z,7.34
2023-01-17T07:21:15.205Z,7.41
2023-01-17T07:23:42.087Z,8.10
2023-01-17T07:26:08.936Z,8.66
2023-01-17T07:28:35.824Z,8.82
2023-01-17T07:31:10.740Z,9.71
2023-01-17T07:33:37.836Z,11.08
2023-01-17T07:36:10.955Z,12.13
2023-01-17T07:38:38.015Z,12.75
2023-01-17T07:41:04.858Z,12.76
2023-01-17T07:43:31.814Z,12.56
2023-01-17T07:46:01.977Z,12.04
2023-01-17T07:48:29.006Z,11.76
2023-01-17T07:51:00.100Z,11.35
2023-01-17T07:53:27.914Z,11.52
2023-01-17T07:55:54.944Z,10.66
2023-01-17T07:58:22.172Z,9.87
2023-01-17T08:00:49.037Z,10.08
2023-01-17T08:03:17.726Z,9.98
2023-01-17T08:05:52.979Z,10.47
2023-01-17T08:08:19.936Z,10.58
2023-01-17T08:10:46.704Z,12.13
2023-01-17T08:13:13.446Z,13.23
2023-01-17T08:15:40.162Z,13.96
2023-01-17T08:18:07.039Z,14.70
2023-01-17T08:20:33.886Z,15.29
2023-01-17T08:23:00.666Z,15.74
2023-01-17T08:25:27.454Z,15.28
2023-01-17T08:27:57.490Z,15.71
2023-01-17T08:30:24.794Z,16.21
2023-01-17T08:32:51.571Z,16.42
2023-01-17T08:35:20.449Z,16.45
2023-01-17T08:37:47.660Z,16.83
2023-01-17T08:40:18.261Z,16.93
2023-01-17T08:42:47.362Z,16.82
2023-01-17T08:45:15.241Z,16.65
2023-01-17T08:47:41.997Z,16.85
2023-01-17T08:50:11.036Z,16.93
2023-01-17T08:52:37.876Z,16.16
2023-01-17T08:55:06.199Z,15.64
2023-01-17T08:57:33.155Z,15.19
2023-01-17T09:00:00.183Z,14.44
2023-01-17T09:02:27.197Z,13.82
2023-01-17T09:04:54.059Z,13.25
2023-01-17T09:07:21.377Z,13.57
2023-01-17T09:09:48.567Z,13.54
2023-01-17T09:12:15.327Z,13.34
2023-01-17T09:14:42.145Z,13.62
2023-01-17T09:17:08.903Z,13.83
2023-01-17T09:19:35.901Z,14.37
2023-01-17T09:22:04.474Z,14.79
2023-01-17T09:24:32.936Z,14.84
2023-01-17T09:27:00.270Z,14.86
2023-01-17T09:29:28.429Z,14.03
2023-01-17T09:31:56.197Z,14.38
2023-01-17T09:34:24.495Z,14.18
2023-01-17T09:36:53.375Z,13.96
2023-01-17T09:39:20.197Z,10.76
2023-01-17T09:42:03.268Z,11.54
2023-01-17T09:44:36.017Z,11.22
2023-01-17T09:47:14.187Z,9.52
2023-01-17T09:49:44.703Z,9.55
2023-01-17T09:52:16.195Z,9.21
2023-01-17T09:54:44.779Z,9.48
2023-01-17T09:57:25.741Z,8.96
2023-01-17T10:00:13.369Z,9.33
2023-01-17T10:03:03.765Z,9.05
2023-01-17T10:05:33.666Z,9.29
2023-01-17T10:08:13.246Z,9.07
2023-01-17T10:10:43.086Z,9.84
2023-01-17T10:13:26.288Z,9.64
2023-01-17T10:16:00.855Z,9.88
2023-01-17T10:18:47.333Z,8.75
2023-01-17T10:21:23.009Z,9.68
2023-01-17T10:24:05.055Z,10.64
2023-01-17T10:26:33.155Z,11.00
2023-01-17T10:29:03.234Z,10.57
2023-01-17T10:31:32.236Z,10.78
2023-01-17T10:34:25.267Z,10.48
2023-01-17T10:36:54.409Z,10.18
2023-01-17T10:39:24.774Z,9.99
2023-01-17T10:41:57.932Z,9.81
2023-01-17T10:44:51.314Z,9.74
2023-01-17T10:47:23.377Z,8.79
2023-01-17T10:49:54.719Z,8.72
2023-01-17T10:52:32.435Z,8.94
2023-01-17T10:55:04.277Z,9.05
2023-01-17T10:57:36.082Z,8.64
2023-01-17T11:00:03.081Z,9.16
2023-01-17T11:02:36.944Z,9.19
2023-01-17T11:05:11.795Z,8.78
2023-01-17T11:07:40.048Z,8.91
2023-01-17T11:10:07.057Z,9.25
2023-01-17T11:12:47.327Z,9.47
2023-01-17T11:15:14.084Z,9.55
2023-01-17T11:17:47.116Z,9.39
2023-01-17T11:20:13.939Z,9.36
2023-01-17T11:22:42.621Z,9.66
2023-01-17T11:25:19.316Z,9.75
2023-01-17T11:27:57.376Z,9.48
2023-01-17T11:30:29.621Z,9.07
2023-01-17T11:32:57.575Z,8.93
2023-01-17T11:35:44.712Z,9.23
2023-01-17T11:38:11.463Z,9.68
2023-01-17T11:40:38.632Z,9.09
2023-01-17T11:43:18.882Z,9.31
2023-01-17T11:45:59.673Z,9.49
2023-01-17T11:48:27.306Z,9.81
2023-01-17T11:50:56.840Z,9.77
2023-01-17T11:53:40.975Z,9.71
2023-01-17T11:56:17.399Z,9.92
2023-01-17T11:58:46.115Z,9.90
2023-01-17T12:01:22.272Z,9.90
2023-01-17T12:03:55.510Z,9.68
2023-01-17T12:06:56.503Z,10.02
2023-01-17T12:09:24.224Z,9.93
2023-01-17T12:12:09.590Z,9.75
2023-01-17T12:14:56.579Z,9.74
2023-01-17T12:17:33.284Z,9.45
2023-01-17T12:20:01.682Z,9.53
2023-01-17T12:22:40.521Z,9.52
2023-01-17T12:25:28.068Z,9.65
2023-01-17T12:27:57.833Z,9.52
2023-01-17T12:30:33.120Z,9.42
2023-01-17T12:32:59.800Z,9.92
2023-01-17T12:35:31.812Z,9.47
2023-01-17T12:38:05.394Z,9.37
2023-01-17T12:40:35.419Z,9.38
2023-01-17T12:43:05.406Z,9.25
2023-01-17T12:45:36.457Z,9.41
2023-01-17T12:48:06.290Z,9.53
2023-01-17T12:50:46.396Z,9.43
2023-01-17T12:53:16.991Z,9.22
2023-01-17T12:55:46.834Z,9.18
2023-01-17T12:58:21.039Z,9.29
2023-01-17T13:00:51.663Z,9.57
2023-01-17T13:03:29.776Z,9.12
2023-01-17T13:05:57.361Z,9.03
2023-01-17T13:08:27.229Z,8.96
2023-01-17T13:10:58.931Z,8.74
2023-01-17T13:13:27.010Z,8.70
2023-01-17T13:15:55.936Z,8.63
2023-01-17T13:18:26.119Z,8.31
2023-01-17T13:21:13.883Z,8.72
2023-01-17T13:23:47.813Z,8.94
2023-01-17T13:26:20.646Z,9.10
2023-01-17T13:28:50.476Z,8.74
2023-01-17T13:31:17.234Z,8.28
2023-01-17T13:34:08.377Z,8.78
2023-01-17T13:36:38.286Z,8.82
2023-01-17T13:39:05.023Z,9.37
2023-01-17T13:41:34.772Z,9.17
2023-01-17T13:44:20.873Z,8.58
2023-01-17T13:47:04.550Z,8.33
2023-01-17T13:49:34.732Z,8.64
2023-01-17T13:52:12.494Z,8.46
2023-01-17T13:54:47.629Z,8.73
2023-01-17T13:57:29.270Z,8.26
2023-01-17T13:59:57.145Z,8.38
2023-01-17T14:02:32.977Z,8.57
2023-01-17T14:05:02.967Z,8.06
2023-01-17T14:07:32.597Z,8.07
2023-01-17T14:09:59.427Z,8.09
2023-01-17T14:12:31.678Z,7.68
2023-01-17T14:15:02.585Z,8.16
2023-01-17T14:17:47.253Z,7.54
2023-01-17T14:20:16.085Z,7.64
2023-01-17T14:22:48.286Z,7.73
2023-01-17T14:25:38.385Z,7.86
2023-01-17T14:28:16.797Z,8.26
2023-01-17T14:30:43.667Z,8.40
2023-01-17T14:33:21.760Z,8.26
2023-01-17T14:36:08.739Z,8.34
2023-01-17T14:38:41.579Z,8.02
2023-01-17T14:41:10.519Z,8.15
2023-01-17T14:43:39.316Z,8.19
2023-01-17T14:46:07.815Z,8.24
2023-01-17T14:48:34.641Z,8.19
2023-01-17T14:51:02.063Z,8.50
2023-01-17T14:53:32.358Z,8.66
2023-01-17T14:56:03.116Z,8.76
2023-01-17T14:58:35.915Z,8.83
2023-01-17T15:01:05.483Z,8.17
2023-01-17T15:03:35.526Z,8.18
2023-01-17T15:06:09.868Z,7.89
2023-01-17T15:08:36.732Z,7.43
2023-01-17T15:11:11.822Z,7.15
2023-01-17T15:13:44.184Z,7.29
2023-01-17T15:16:31.280Z,6.79
2023-01-17T15:18:58.135Z,7.02
2023-01-17T15:21:26.719Z,6.85
2023-01-17T15:23:55.533Z,6.67
2023-01-17T15:26:24.101Z,6.82
2023-01-17T15:28:52.190Z,6.57
2023-01-17T15:31:19.043Z,6.52
2023-01-17T15:33:47.276Z,6.29
2023-01-17T15:36:26.409Z,6.46
2023-01-17T15:38:56.117Z,6.83
2023-01-17T15:41:24.443Z,6.57
2023-01-17T15:43:51.531Z,6.09
2023-01-17T15:46:23.198Z,6.31
2023-01-17T15:48:53.887Z,6.13
2023-01-17T15:51:31.237Z,6.47
2023-01-17T15:53:58.089Z,6.15
2023-01-17T15:56:32.555Z,6.00
2023-01-17T15:59:18.288Z,6.32
2023-01-17T16:01:52.698Z,6.36
2023-01-17T16:04:26.489Z,6.24
2023-01-17T16:06:53.212Z,6.06
2023-01-17T16:09:23.713Z,6.16
2023-01-17T16:11:50.592Z,6.48
2023-01-17T16:14:17.967Z,6.09
2023-01-17T16:16:55.889Z,6.40
2023-01-17T16:19:22.841Z,6.23
2023-01-17T16:21:52.520Z,6.16
2023-01-17T16:24:19.927Z,6.67
2023-01-17T16:26:46.659Z,6.32
2023-01-17T16:29:13.362Z,6.37
2023-01-17T16:31:42.091Z,6.31
2023-01-17T16:34:14.927Z,6.75
2023-01-17T16:36:41.683Z,6.96
2023-01-17T16:39:08.573Z,6.34
2023-01-17T16:41:35.263Z,6.37
2023-01-17T16:44:03.671Z,6.22
2023-01-17T16:46:30.637Z,6.69
2023-01-17T16:48:59.212Z,6.33
2023-01-17T16:51:25.966Z,6.34
2023-01-17T16:53:52.678Z,6.62
2023-01-17T16:56:19.844Z,6.82
2023-01-17T16:58:46.581Z,6.87
2023-01-17T17:01:16.030Z,7.09
2023-01-17T17:03:46.810Z,7.30
2023-01-17T17:06:13.790Z,7.94
2023-01-17T17:08:40.682Z,7.17
2023-01-17T17:11:13.330Z,7.37
2023-01-17T17:13:40.835Z,8.27
2023-01-17T17:16:12.085Z,7.28
2023-01-17T17:18:39.218Z,7.07
2023-01-17T17:21:05.944Z,7.00
2023-01-17T17:23:32.713Z,7.24
2023-01-17T17:25:59.375Z,7.14
2023-01-17T17:28:26.388Z,7.44
2023-01-17T17:31:01.656Z,6.66
2023-01-17T17:33:28.373Z,7.09
2023-01-17T17:35:55.492Z,6.61
2023-01-17T17:38:22.246Z,7.05
2023-01-17T17:40:48.980Z,7.02
2023-01-17T17:43:15.747Z,7.25
2023-01-17T17:45:42.447Z,6.71
2023-01-17T17:48:09.184Z,6.63
2023-01-17T17:50:35.885Z,6.52
2023-01-17T17:53:02.692Z,6.43
2023-01-17T17:55:29.611Z,6.46
2023-01-17T17:57:56.730Z,6.11
2023-01-17T18:00:24.744Z,6.30
2023-01-17T18:02:51.459Z,5.89
2023-01-17T18:05:18.154Z,6.07
2023-01-17T18:07:44.978Z,5.74
2023-01-17T18:10:11.764Z,5.75
2023-01-17T18:12:38.525Z,5.80
2023-01-17T18:15:05.482Z,5.97
2023-01-17T18:17:32.212Z,5.84
2023-01-17T18:19:59.879Z,5.50
2023-01-17T18:22:26.654Z,5.29
2023-01-17T18:24:53.353Z,5.11
2023-01-17T18:27:20.103Z,5.14
2023-01-17T18:29:46.854Z,5.04
2023-01-17T18:32:13.526Z,5.16
2023-01-17T18:34:41.739Z,5.30
2023-01-17T18:37:08.454Z,5.14
2023-01-17T18:39:35.240Z,5.04
2023-01-17T18:42:02.117Z,4.96
2023-01-17T18:44:29.921Z,5.10
2023-01-17T18:47:02.125Z,4.67
2023-01-17T18:49:30.658Z,4.92
2023-01-17T18:51:57.406Z,4.80
2023-01-17T18:54:24.157Z,4.94
2023-01-17T18:56:51.399Z,5.06
2023-01-17T18:59:23.638Z,4.73
2023-01-17T19:01:50.504Z,4.69
2023-01-17T19:04:17.715Z,4.84
2023-01-17T19:06:46.033Z,5.52
2023-01-17T19:09:14.714Z,5.84
2023-01-17T19:11:43.292Z,6.28
2023-01-17T19:14:10.442Z,6.45
2023-01-17T19:16:39.606Z,6.68
2023-01-17T19:19:07.865Z,6.63
2023-01-17T19:21:34.925Z,6.26
2023-01-17T19:24:01.859Z,6.36
2023-01-17T19:26:30.169Z,5.88
2023-01-17T19:28:58.986Z,5.77
2023-01-17T19:31:29.713Z,5.39
2023-01-17T19:33:57.717Z,5.91
2023-01-17T19:36:26.803Z,5.73
2023-01-17T19:39:04.125Z,5.52
2023-01-17T19:41:31.701Z,6.13
2023-01-17T19:43:59.473Z,5.38
2023-01-17T19:46:27.627Z,5.41
2023-01-17T19:48:55.269Z,5.42
2023-01-17T19:51:22.163Z,5.40
2023-01-17T19:53:48.908Z,6.01
2023-01-17T19:56:16.983Z,5.61
2023-01-17T19:58:44.482Z,5.55
2023-01-17T20:01:12.538Z,5.56
2023-01-17T20:03:39.412Z,5.55
2023-01-17T20:06:06.877Z,6.13
2023-01-17T20:08:34.278Z,6.49
2023-01-17T20:11:02.236Z,6.95
2023-01-17T20:13:29.012Z,6.57
2023-01-17T20:15:55.791Z,6.09
2023-01-17T20:18:22.956Z,6.28
2023-01-17T20:20:57.036Z,5.99
2023-01-17T20:23:24.360Z,5.56
2023-01-17T20:26:00.294Z,5.64
2023-01-17T20:28:27.234Z,5.27
2023-01-17T20:30:54.547Z,4.97
2023-01-17T20:33:21.745Z,5.17
2023-01-17T20:35:51.611Z,5.40
2023-01-17T20:38:27.551Z,5.92
2023-01-17T20:40:55.658Z,6.50
2023-01-17T20:43:22.362Z,7.08
2023-01-17T20:45:56.043Z,7.19
2023-01-17T20:48:22.807Z,6.98
2023-01-17T20:50:49.491Z,6.55
2023-01-17T20:53:18.577Z,6.38
2023-01-17T20:55:45.366Z,7.29
2023-01-17T20:58:12.114Z,7.35
2023-01-17T21:00:40.664Z,7.30
2023-01-17T21:03:07.367Z,7.55
2023-01-17T21:05:34.116Z,7.22
2023-01-17T21:08:04.084Z,7.19
2023-01-17T21:10:31.031Z,7.67
2023-01-17T21:12:57.846Z,7.81
2023-01-17T21:15:24.544Z,8.00
2023-01-17T21:17:51.396Z,7.76
2023-01-17T21:20:18.155Z,7.35
2023-01-17T21:22:44.885Z,7.85
2023-01-17T21:25:11.720Z,8.05
2023-01-17T21:27:38.475Z,8.03
2023-01-17T21:30:05.824Z,8.19
2023-01-17T21:32:32.539Z,7.96
2023-01-17T21:34:59.243Z,7.71
2023-01-17T21:37:26.001Z,8.10
2023-01-17T21:39:55.047Z,8.20
2023-01-17T21:42:21.771Z,7.92
2023-01-17T21:44:49.258Z,8.00
2023-01-17T21:47:15.933Z,8.17
2023-01-17T21:49:42.687Z,8.34
2023-01-17T21:52:11.697Z,8.30
2023-01-17T21:54:57.257Z,8.06
2023-01-17T21:57:42.323Z,8.24
2023-01-17T22:00:11.015Z,8.36
2023-01-17T22:02:37.871Z,8.31
2023-01-17T22:05:04.737Z,8.36
2023-01-17T22:07:31.466Z,8.28
2023-01-17T22:09:58.203Z,8.20
2023-01-17T22:12:25.015Z,8.03
2023-01-17T22:14:52.786Z,8.28
2023-01-17T22:17:21.122Z,8.40
2023-01-17T22:19:47.988Z,8.44
2023-01-17T22:22:14.780Z,8.50
2023-01-17T22:24:41.568Z,8.54
2023-01-17T22:27:10.916Z,8.32
2023-01-17T22:29:37.788Z,8.33
2023-01-17T22:32:04.897Z,8.31
2023-01-17T22:34:31.618Z,8.20
2023-01-17T22:36:58.310Z,8.21
2023-01-17T22:39:25.053Z,8.25
2023-01-17T22:41:51.745Z,8.41
2023-01-17T22:44:18.548Z,8.47
2023-01-17T22:46:45.403Z,8.59
2023-01-17T22:49:13.503Z,8.48
2023-01-17T22:51:40.243Z,8.55
2023-01-17T22:54:06.994Z,8.62
2023-01-17T22:56:34.174Z,8.75
2023-01-17T22:59:01.369Z,8.75
2023-01-17T23:01:33.121Z,8.76
2023-01-17T23:04:01.895Z,8.83
2023-01-17T23:06:30.610Z,8.64
2023-01-17T23:08:58.761Z,8.70
2023-01-17T23:11:39.308Z,8.71
2023-01-17T23:14:10.941Z,8.71
2023-01-17T23:16:57.207Z,8.65
2023-01-17T23:19:24.495Z,8.54
2023-01-17T23:22:12.289Z,7.25
2023-01-17T23:24:43.234Z,8.10
2023-01-17T23:27:39.299Z,8.31
2023-01-17T23:30:07.319Z,8.18
2023-01-17T23:32:34.157Z,8.37
2023-01-17T23:35:00.919Z,8.29
2023-01-17T23:37:48.432Z,8.26
2023-01-17T23:40:15.820Z,8.46
2023-01-17T23:43:01.277Z,8.40
2023-01-17T23:45:28.548Z,8.46
2023-01-17T23:47:55.420Z,8.39
2023-01-17T23:50:22.247Z,8.60
2023-01-17T23:52:49.049Z,8.49
2023-01-17T23:55:15.877Z,8.50
2023-01-17T23:57:42.668Z,8.51
